sensor_id;sensor_type;location;lat;lon;timestamp;P1;durP1;ratioP1;P2;durP2;ratioP2
44670;SDS011;48397;53.016;-2.260;2023-02-26T00:01:41;4.90;;;2.43;;
44670;SDS011;48397;53.016;-2.260;2023-02-26T00:04:09;11.27;;;3.60;;
44670;SDS011;48397;53.016;-2.260;2023-02-26T00:06:38;10.30;;;3.33;;
44670;SDS011;48397;53.016;-2.260;2023-02-26T00:09:21;4.50;;;2.50;;
44670;SDS011;48397;53.016;-2.260;2023-02-26T00:11:49;7.38;;;2.42;;
44670;SDS011;48397;53.016;-2.260;2023-02-26T00:14:18;3.67;;;1.92;;
44670;SDS011;48397;53.016;-2.260;2023-02-26T00:19:16;9.95;;;3.03;;
44670;SDS011;48397;53.016;-2.260;2023-02-26T00:21:44;3.80;;;1.92;;
44670;SDS011;48397;53.016;-2.260;2023-02-26T00:26:39;3.53;;;2.05;;
44670;SDS011;48397;53.016;-2.260;2023-02-26T00:29:07;5.03;;;2.85;;
44670;SDS011;48397;53.016;-2.260;2023-02-26T00:31:35;3.70;;;1.42;;
44670;SDS011;48397;53.016;-2.260;2023-02-26T00:34:03;9.40;;;2.90;;
44670;SDS011;48397;53.016;-2.260;2023-02-26T00:36:51;5.47;;;2.15;;
44670;SDS011;48397;53.016;-2.260;2023-02-26T00:42:21;5.95;;;2.40;;
44670;SDS011;48397;53.016;-2.260;2023-02-26T00:44:50;4.13;;;1.38;;
44670;SDS011;48397;53.016;-2.260;2023-02-26T00:55:25;6.60;;;2.17;;
44670;SDS011;48397;53.016;-2.260;2023-02-26T00:57:55;6.63;;;1.97;;
44670;SDS011;48397;53.016;-2.260;2023-02-26T01:00:23;5.97;;;1.98;;
44670;SDS011;48397;53.016;-2.260;2023-02-26T01:05:19;8.77;;;2.35;;
44670;SDS011;48397;53.016;-2.260;2023-02-26T01:14:20;6.03;;;2.13;;
44670;SDS011;48397;53.016;-2.260;2023-02-26T01:16:56;5.77;;;2.67;;
44670;SDS011;48397;53.016;-2.260;2023-02-26T01:22:31;6.87;;;2.27;;
44670;SDS011;48397;53.016;-2.260;2023-02-26T01:25:14;8.27;;;2.80;;
44670;SDS011;48397;53.016;-2.260;2023-02-26T01:27:47;6.47;;;2.47;;
44670;SDS011;48397;53.016;-2.260;2023-02-26T01:30:15;6.72;;;3.08;;
44670;SDS011;48397;53.016;-2.260;2023-02-26T01:35:30;4.77;;;2.23;;
44670;SDS011;48397;53.016;-2.260;2023-02-26T01:38:12;7.33;;;2.27;;
44670;SDS011;48397;53.016;-2.260;2023-02-26T01:43:18;12.60;;;2.77;;
44670;SDS011;48397;53.016;-2.260;2023-02-26T01:45:54;3.23;;;1.53;;
44670;SDS011;48397;53.016;-2.260;2023-02-26T01:48:35;2.77;;;1.60;;
44670;SDS011;48397;53.016;-2.260;2023-02-26T01:51:09;5.43;;;1.83;;
44670;SDS011;48397;53.016;-2.260;2023-02-26T01:53:38;7.73;;;1.93;;
44670;SDS011;48397;53.016;-2.260;2023-02-26T01:58:45;7.27;;;2.80;;
44670;SDS011;48397;53.016;-2.260;2023-02-26T02:01:16;7.30;;;2.93;;
44670;SDS011;48397;53.016;-2.260;2023-02-26T02:03:44;6.00;;;2.40;;
44670;SDS011;48397;53.016;-2.260;2023-02-26T02:06:17;6.23;;;2.03;;
44670;SDS011;48397;53.016;-2.260;2023-02-26T02:08:48;6.10;;;2.43;;
44670;SDS011;48397;53.016;-2.260;2023-02-26T02:11:16;11.45;;;2.85;;
44670;SDS011;48397;53.016;-2.260;2023-02-26T02:19:11;8.70;;;3.07;;
44670;SDS011;48397;53.016;-2.260;2023-02-26T02:24:43;9.23;;;2.90;;
44670;SDS011;48397;53.016;-2.260;2023-02-26T02:27:46;10.47;;;4.77;;
44670;SDS011;48397;53.016;-2.260;2023-02-26T02:30:34;12.10;;;4.20;;
44670;SDS011;48397;53.016;-2.260;2023-02-26T02:33:27;9.43;;;3.70;;
44670;SDS011;48397;53.016;-2.260;2023-02-26T02:39:24;13.20;;;5.13;;
44670;SDS011;48397;53.016;-2.260;2023-02-26T02:44:52;11.27;;;4.20;;
44670;SDS011;48397;53.016;-2.260;2023-02-26T02:47:27;9.50;;;4.33;;
44670;SDS011;48397;53.016;-2.260;2023-02-26T02:50:02;6.20;;;2.77;;
44670;SDS011;48397;53.016;-2.260;2023-02-26T02:52:42;13.33;;;2.60;;
44670;SDS011;48397;53.016;-2.260;2023-02-26T02:55:21;9.43;;;3.95;;
44670;SDS011;48397;53.016;-2.260;2023-02-26T02:57:57;7.10;;;3.37;;
44670;SDS011;48397;53.016;-2.260;2023-02-26T03:00:32;10.53;;;3.80;;
44670;SDS011;48397;53.016;-2.260;2023-02-26T03:03:06;9.63;;;4.10;;
44670;SDS011;48397;53.016;-2.260;2023-02-26T03:05:57;8.23;;;4.07;;
44670;SDS011;48397;53.016;-2.260;2023-02-26T03:08:29;9.13;;;3.80;;
44670;SDS011;48397;53.016;-2.260;2023-02-26T03:11:00;12.53;;;3.70;;
44670;SDS011;48397;53.016;-2.260;2023-02-26T03:21:29;12.97;;;4.33;;
44670;SDS011;48397;53.016;-2.260;2023-02-26T03:24:25;9.80;;;3.90;;
44670;SDS011;48397;53.016;-2.260;2023-02-26T03:27:04;12.43;;;4.13;;
44670;SDS011;48397;53.016;-2.260;2023-02-26T03:29:50;11.80;;;4.18;;
44670;SDS011;48397;53.016;-2.260;2023-02-26T03:35:28;3.60;;;1.77;;
44670;SDS011;48397;53.016;-2.260;2023-02-26T03:38:22;9.50;;;3.13;;
44670;SDS011;48397;53.016;-2.260;2023-02-26T03:41:08;11.30;;;3.60;;
44670;SDS011;48397;53.016;-2.260;2023-02-26T03:44:27;11.63;;;3.40;;
44670;SDS011;48397;53.016;-2.260;2023-02-26T03:46:43;8.03;;;3.10;;
44670;SDS011;48397;53.016;-2.260;2023-02-26T03:49:17;9.67;;;3.60;;
44670;SDS011;48397;53.016;-2.260;2023-02-26T03:51:51;9.67;;;4.17;;
44670;SDS011;48397;53.016;-2.260;2023-02-26T03:54:44;8.83;;;3.97;;
44670;SDS011;48397;53.016;-2.260;2023-02-26T03:57:40;11.43;;;4.50;;
44670;SDS011;48397;53.016;-2.260;2023-02-26T04:00:22;12.10;;;4.03;;
44670;SDS011;48397;53.016;-2.260;2023-02-26T04:02:58;7.70;;;3.23;;
44670;SDS011;48397;53.016;-2.260;2023-02-26T04:05:34;12.03;;;3.70;;
44670;SDS011;48397;53.016;-2.260;2023-02-26T04:08:06;5.00;;;2.17;;
44670;SDS011;48397;53.016;-2.260;2023-02-26T04:10:39;9.57;;;3.50;;
44670;SDS011;48397;53.016;-2.260;2023-02-26T04:13:10;7.07;;;2.63;;
44670;SDS011;48397;53.016;-2.260;2023-02-26T04:15:38;7.55;;;3.40;;
44670;SDS011;48397;53.016;-2.260;2023-02-26T04:18:06;9.33;;;2.07;;
44670;SDS011;48397;53.016;-2.260;2023-02-26T04:20:34;8.20;;;2.95;;
44670;SDS011;48397;53.016;-2.260;2023-02-26T04:23:02;5.68;;;2.58;;
44670;SDS011;48397;53.016;-2.260;2023-02-26T04:25:30;3.97;;;2.42;;
44670;SDS011;48397;53.016;-2.260;2023-02-26T04:27:59;5.53;;;2.50;;
44670;SDS011;48397;53.016;-2.260;2023-02-26T04:30:27;10.27;;;3.37;;
44670;SDS011;48397;53.016;-2.260;2023-02-26T04:32:57;4.60;;;1.70;;
44670;SDS011;48397;53.016;-2.260;2023-02-26T04:35:24;8.52;;;3.67;;
44670;SDS011;48397;53.016;-2.260;2023-02-26T04:37:55;3.93;;;1.80;;
44670;SDS011;48397;53.016;-2.260;2023-02-26T04:40:24;10.53;;;3.20;;
44670;SDS011;48397;53.016;-2.260;2023-02-26T04:42:52;7.47;;;3.20;;
44670;SDS011;48397;53.016;-2.260;2023-02-26T04:45:23;8.17;;;3.10;;
44670;SDS011;48397;53.016;-2.260;2023-02-26T04:47:52;5.87;;;2.67;;
44670;SDS011;48397;53.016;-2.260;2023-02-26T04:52:52;8.97;;;2.27;;
44670;SDS011;48397;53.016;-2.260;2023-02-26T04:55:20;9.37;;;3.27;;
44670;SDS011;48397;53.016;-2.260;2023-02-26T04:57:50;10.93;;;3.17;;
44670;SDS011;48397;53.016;-2.260;2023-02-26T05:00:22;5.82;;;2.28;;
44670;SDS011;48397;53.016;-2.260;2023-02-26T05:02:51;7.28;;;2.90;;
44670;SDS011;48397;53.016;-2.260;2023-02-26T05:05:20;8.70;;;3.33;;
44670;SDS011;48397;53.016;-2.260;2023-02-26T05:07:48;5.77;;;2.53;;
44670;SDS011;48397;53.016;-2.260;2023-02-26T05:10:16;7.20;;;3.30;;
44670;SDS011;48397;53.016;-2.260;2023-02-26T05:12:45;12.57;;;4.77;;
44670;SDS011;48397;53.016;-2.260;2023-02-26T05:15:14;4.40;;;2.50;;
44670;SDS011;48397;53.016;-2.260;2023-02-26T05:17:42;11.73;;;3.50;;
44670;SDS011;48397;53.016;-2.260;2023-02-26T05:20:10;8.25;;;1.95;;
44670;SDS011;48397;53.016;-2.260;2023-02-26T05:22:38;8.50;;;3.15;;
44670;SDS011;48397;53.016;-2.260;2023-02-26T05:25:06;7.57;;;3.30;;
44670;SDS011;48397;53.016;-2.260;2023-02-26T05:27:35;7.53;;;3.30;;
44670;SDS011;48397;53.016;-2.260;2023-02-26T05:30:03;15.10;;;3.38;;
44670;SDS011;48397;53.016;-2.260;2023-02-26T05:32:33;9.90;;;2.90;;
44670;SDS011;48397;53.016;-2.260;2023-02-26T05:37:29;7.20;;;3.28;;
44670;SDS011;48397;53.016;-2.260;2023-02-26T05:39:56;10.13;;;3.53;;
44670;SDS011;48397;53.016;-2.260;2023-02-26T05:47:20;9.15;;;3.20;;
44670;SDS011;48397;53.016;-2.260;2023-02-26T05:49:48;8.90;;;3.22;;
44670;SDS011;48397;53.016;-2.260;2023-02-26T05:52:16;11.77;;;2.77;;
44670;SDS011;48397;53.016;-2.260;2023-02-26T05:54:43;5.45;;;2.67;;
44670;SDS011;48397;53.016;-2.260;2023-02-26T05:57:11;13.93;;;4.25;;
44670;SDS011;48397;53.016;-2.260;2023-02-26T05:59:39;10.25;;;2.88;;
44670;SDS011;48397;53.016;-2.260;2023-02-26T06:02:07;12.18;;;3.42;;
44670;SDS011;48397;53.016;-2.260;2023-02-26T06:04:34;4.20;;;2.03;;
44670;SDS011;48397;53.016;-2.260;2023-02-26T06:07:02;6.18;;;2.90;;
44670;SDS011;48397;53.016;-2.260;2023-02-26T06:09:30;23.33;;;4.72;;
44670;SDS011;48397;53.016;-2.260;2023-02-26T06:11:57;4.85;;;2.10;;
44670;SDS011;48397;53.016;-2.260;2023-02-26T06:14:26;10.57;;;3.60;;
44670;SDS011;48397;53.016;-2.260;2023-02-26T06:16:54;8.55;;;2.28;;
44670;SDS011;48397;53.016;-2.260;2023-02-26T06:21:49;4.50;;;2.58;;
44670;SDS011;48397;53.016;-2.260;2023-02-26T06:24:17;11.73;;;3.13;;
44670;SDS011;48397;53.016;-2.260;2023-02-26T06:26:44;8.27;;;3.22;;
44670;SDS011;48397;53.016;-2.260;2023-02-26T06:29:12;9.32;;;3.20;;
44670;SDS011;48397;53.016;-2.260;2023-02-26T06:31:40;6.03;;;2.75;;
44670;SDS011;48397;53.016;-2.260;2023-02-26T06:34:07;8.23;;;2.50;;
44670;SDS011;48397;53.016;-2.260;2023-02-26T06:36:35;9.23;;;2.80;;
44670;SDS011;48397;53.016;-2.260;2023-02-26T06:39:03;9.68;;;3.33;;
44670;SDS011;48397;53.016;-2.260;2023-02-26T06:41:31;11.20;;;3.28;;
44670;SDS011;48397;53.016;-2.260;2023-02-26T06:43:59;8.27;;;3.15;;
44670;SDS011;48397;53.016;-2.260;2023-02-26T06:46:28;2.37;;;0.97;;
44670;SDS011;48397;53.016;-2.260;2023-02-26T06:48:56;8.82;;;2.65;;
44670;SDS011;48397;53.016;-2.260;2023-02-26T06:51:24;7.38;;;2.88;;
44670;SDS011;48397;53.016;-2.260;2023-02-26T06:53:53;8.40;;;2.87;;
44670;SDS011;48397;53.016;-2.260;2023-02-26T06:56:20;7.07;;;2.60;;
44670;SDS011;48397;53.016;-2.260;2023-02-26T06:58:50;3.00;;;1.83;;
44670;SDS011;48397;53.016;-2.260;2023-02-26T07:03:45;6.88;;;2.60;;
44670;SDS011;48397;53.016;-2.260;2023-02-26T07:06:13;9.07;;;2.65;;
44670;SDS011;48397;53.016;-2.260;2023-02-26T07:09:04;8.67;;;1.93;;
44670;SDS011;48397;53.016;-2.260;2023-02-26T07:11:32;6.43;;;2.42;;
44670;SDS011;48397;53.016;-2.260;2023-02-26T07:14:01;6.77;;;2.47;;
44670;SDS011;48397;53.016;-2.260;2023-02-26T07:16:28;5.43;;;2.35;;
44670;SDS011;48397;53.016;-2.260;2023-02-26T07:18:56;9.88;;;3.08;;
44670;SDS011;48397;53.016;-2.260;2023-02-26T07:21:24;8.95;;;2.47;;
44670;SDS011;48397;53.016;-2.260;2023-02-26T07:23:52;6.57;;;2.17;;
44670;SDS011;48397;53.016;-2.260;2023-02-26T07:28:48;1.35;;;1.00;;
44670;SDS011;48397;53.016;-2.260;2023-02-26T07:31:15;6.00;;;3.17;;
44670;SDS011;48397;53.016;-2.260;2023-02-26T07:33:44;10.20;;;1.97;;
44670;SDS011;48397;53.016;-2.260;2023-02-26T07:36:12;8.63;;;2.25;;
44670;SDS011;48397;53.016;-2.260;2023-02-26T07:38:39;6.63;;;2.67;;
44670;SDS011;48397;53.016;-2.260;2023-02-26T07:41:08;2.60;;;1.83;;
44670;SDS011;48397;53.016;-2.260;2023-02-26T07:43:36;6.07;;;2.15;;
44670;SDS011;48397;53.016;-2.260;2023-02-26T07:46:04;12.00;;;3.63;;
44670;SDS011;48397;53.016;-2.260;2023-02-26T07:48:32;12.55;;;2.78;;
44670;SDS011;48397;53.016;-2.260;2023-02-26T07:51:00;13.15;;;3.08;;
44670;SDS011;48397;53.016;-2.260;2023-02-26T07:53:27;5.75;;;2.58;;
44670;SDS011;48397;53.016;-2.260;2023-02-26T07:55:55;12.43;;;3.33;;
44670;SDS011;48397;53.016;-2.260;2023-02-26T07:58:23;7.72;;;2.97;;
44670;SDS011;48397;53.016;-2.260;2023-02-26T08:00:50;5.15;;;1.83;;
44670;SDS011;48397;53.016;-2.260;2023-02-26T08:03:19;1.95;;;1.27;;
44670;SDS011;48397;53.016;-2.260;2023-02-26T08:05:47;8.30;;;2.87;;
44670;SDS011;48397;53.016;-2.260;2023-02-26T08:08:14;4.50;;;1.95;;
44670;SDS011;48397;53.016;-2.260;2023-02-26T08:10:42;10.88;;;4.55;;
44670;SDS011;48397;53.016;-2.260;2023-02-26T08:13:10;7.25;;;2.38;;
44670;SDS011;48397;53.016;-2.260;2023-02-26T08:15:37;2.75;;;1.15;;
44670;SDS011;48397;53.016;-2.260;2023-02-26T08:18:07;4.20;;;2.00;;
44670;SDS011;48397;53.016;-2.260;2023-02-26T08:20:35;2.83;;;1.20;;
44670;SDS011;48397;53.016;-2.260;2023-02-26T08:23:03;6.13;;;2.22;;
44670;SDS011;48397;53.016;-2.260;2023-02-26T08:25:32;4.53;;;2.47;;
44670;SDS011;48397;53.016;-2.260;2023-02-26T08:27:59;6.15;;;2.20;;
44670;SDS011;48397;53.016;-2.260;2023-02-26T08:30:29;8.27;;;2.17;;
44670;SDS011;48397;53.016;-2.260;2023-02-26T08:32:57;4.70;;;1.40;;
44670;SDS011;48397;53.016;-2.260;2023-02-26T08:35:25;5.93;;;2.78;;
44670;SDS011;48397;53.016;-2.260;2023-02-26T08:37:53;5.68;;;2.70;;
44670;SDS011;48397;53.016;-2.260;2023-02-26T08:40:21;2.75;;;1.63;;
44670;SDS011;48397;53.016;-2.260;2023-02-26T08:42:48;5.63;;;1.70;;
44670;SDS011;48397;53.016;-2.260;2023-02-26T08:45:16;3.88;;;2.05;;
44670;SDS011;48397;53.016;-2.260;2023-02-26T08:47:44;4.57;;;2.20;;
44670;SDS011;48397;53.016;-2.260;2023-02-26T08:50:22;5.03;;;2.58;;
44670;SDS011;48397;53.016;-2.260;2023-02-26T08:52:51;3.20;;;1.63;;
44670;SDS011;48397;53.016;-2.260;2023-02-26T08:55:19;6.30;;;2.42;;
44670;SDS011;48397;53.016;-2.260;2023-02-26T08:57:48;6.63;;;2.78;;
44670;SDS011;48397;53.016;-2.260;2023-02-26T09:00:16;11.75;;;3.90;;
44670;SDS011;48397;53.016;-2.260;2023-02-26T09:02:44;5.72;;;2.63;;
44670;SDS011;48397;53.016;-2.260;2023-02-26T09:05:12;7.18;;;2.33;;
44670;SDS011;48397;53.016;-2.260;2023-02-26T09:07:43;5.80;;;2.42;;
44670;SDS011;48397;53.016;-2.260;2023-02-26T09:15:07;4.60;;;2.25;;
44670;SDS011;48397;53.016;-2.260;2023-02-26T09:17:37;3.78;;;2.10;;
44670;SDS011;48397;53.016;-2.260;2023-02-26T09:22:33;6.50;;;3.20;;
44670;SDS011;48397;53.016;-2.260;2023-02-26T09:25:02;4.85;;;2.10;;
44670;SDS011;48397;53.016;-2.260;2023-02-26T09:27:30;8.55;;;2.50;;
44670;SDS011;48397;53.016;-2.260;2023-02-26T09:29:59;7.20;;;2.50;;
44670;SDS011;48397;53.016;-2.260;2023-02-26T09:32:26;4.75;;;2.60;;
44670;SDS011;48397;53.016;-2.260;2023-02-26T09:34:54;3.63;;;2.00;;
44670;SDS011;48397;53.016;-2.260;2023-02-26T09:37:22;7.85;;;3.47;;
44670;SDS011;48397;53.016;-2.260;2023-02-26T09:39:50;8.85;;;2.50;;
44670;SDS011;48397;53.016;-2.260;2023-02-26T09:45:00;6.30;;;2.28;;
44670;SDS011;48397;53.016;-2.260;2023-02-26T09:47:36;8.25;;;3.13;;
44670;SDS011;48397;53.016;-2.260;2023-02-26T09:50:18;4.82;;;2.45;;
44670;SDS011;48397;53.016;-2.260;2023-02-26T09:53:00;5.55;;;2.10;;
44670;SDS011;48397;53.016;-2.260;2023-02-26T09:55:41;9.95;;;2.90;;
44670;SDS011;48397;53.016;-2.260;2023-02-26T09:58:26;8.20;;;2.60;;
44670;SDS011;48397;53.016;-2.260;2023-02-26T10:07:17;11.57;;;2.42;;
44670;SDS011;48397;53.016;-2.260;2023-02-26T10:10:04;6.57;;;1.63;;
44670;SDS011;48397;53.016;-2.260;2023-02-26T10:12:46;8.90;;;2.65;;
44670;SDS011;48397;53.016;-2.260;2023-02-26T10:15:19;9.80;;;1.83;;
44670;SDS011;48397;53.016;-2.260;2023-02-26T10:36:35;5.85;;;1.35;;
44670;SDS011;48397;53.016;-2.260;2023-02-26T10:42:16;2.08;;;0.63;;
44670;SDS011;48397;53.016;-2.260;2023-02-26T10:50:00;9.05;;;1.70;;
44670;SDS011;48397;53.016;-2.260;2023-02-26T10:52:32;5.90;;;1.83;;
44670;SDS011;48397;53.016;-2.260;2023-02-26T10:57:47;8.77;;;1.52;;
44670;SDS011;48397;53.016;-2.260;2023-02-26T11:00:20;4.88;;;1.40;;
44670;SDS011;48397;53.016;-2.260;2023-02-26T11:02:49;5.57;;;1.70;;
44670;SDS011;48397;53.016;-2.260;2023-02-26T11:05:26;6.85;;;2.17;;
44670;SDS011;48397;53.016;-2.260;2023-02-26T11:07:57;3.22;;;1.58;;
44670;SDS011;48397;53.016;-2.260;2023-02-26T11:10:44;5.80;;;2.08;;
44670;SDS011;48397;53.016;-2.260;2023-02-26T11:13:16;6.60;;;1.70;;
44670;SDS011;48397;53.016;-2.260;2023-02-26T11:15:50;7.45;;;1.67;;
44670;SDS011;48397;53.016;-2.260;2023-02-26T11:18:30;7.32;;;2.05;;
44670;SDS011;48397;53.016;-2.260;2023-02-26T11:21:05;7.80;;;1.98;;
44670;SDS011;48397;53.016;-2.260;2023-02-26T11:23:34;11.63;;;2.13;;
44670;SDS011;48397;53.016;-2.260;2023-02-26T11:26:06;7.97;;;1.42;;
44670;SDS011;48397;53.016;-2.260;2023-02-26T11:28:49;6.80;;;1.58;;
44670;SDS011;48397;53.016;-2.260;2023-02-26T11:31:21;8.32;;;2.05;;
44670;SDS011;48397;53.016;-2.260;2023-02-26T11:33:52;8.18;;;1.73;;
44670;SDS011;48397;53.016;-2.260;2023-02-26T11:36:24;9.05;;;2.47;;
44670;SDS011;48397;53.016;-2.260;2023-02-26T11:39:00;9.02;;;1.67;;
44670;SDS011;48397;53.016;-2.260;2023-02-26T11:41:49;8.77;;;3.17;;
44670;SDS011;48397;53.016;-2.260;2023-02-26T11:47:24;6.18;;;1.67;;
44670;SDS011;48397;53.016;-2.260;2023-02-26T11:49:58;7.05;;;1.83;;
44670;SDS011;48397;53.016;-2.260;2023-02-26T11:52:34;12.05;;;2.00;;
44670;SDS011;48397;53.016;-2.260;2023-02-26T11:57:52;5.93;;;1.75;;
44670;SDS011;48397;53.016;-2.260;2023-02-26T12:00:28;8.50;;;1.80;;
44670;SDS011;48397;53.016;-2.260;2023-02-26T12:02:59;9.95;;;1.85;;
44670;SDS011;48397;53.016;-2.260;2023-02-26T12:05:34;6.25;;;1.10;;
44670;SDS011;48397;53.016;-2.260;2023-02-26T12:08:04;10.20;;;1.52;;
44670;SDS011;48397;53.016;-2.260;2023-02-26T12:10:45;6.72;;;1.35;;
44670;SDS011;48397;53.016;-2.260;2023-02-26T12:16:20;6.65;;;1.73;;
44670;SDS011;48397;53.016;-2.260;2023-02-26T12:19:07;5.40;;;1.25;;
44670;SDS011;48397;53.016;-2.260;2023-02-26T12:24:48;5.60;;;1.20;;
44670;SDS011;48397;53.016;-2.260;2023-02-26T12:33:07;7.32;;;1.45;;
44670;SDS011;48397;53.016;-2.260;2023-02-26T12:39:07;3.83;;;0.98;;
44670;SDS011;48397;53.016;-2.260;2023-02-26T13:01:30;7.00;;;1.52;;
44670;SDS011;48397;53.016;-2.260;2023-02-26T13:12:56;4.65;;;2.28;;
44670;SDS011;48397;53.016;-2.260;2023-02-26T13:21:06;1.65;;;1.00;;
44670;SDS011;48397;53.016;-2.260;2023-02-26T13:23:51;7.97;;;1.58;;
44670;SDS011;48397;53.016;-2.260;2023-02-26T13:26:23;7.18;;;2.00;;
44670;SDS011;48397;53.016;-2.260;2023-02-26T13:28:57;6.68;;;1.95;;
44670;SDS011;48397;53.016;-2.260;2023-02-26T13:31:37;4.13;;;1.15;;
44670;SDS011;48397;53.016;-2.260;2023-02-26T13:34:16;4.18;;;1.33;;
44670;SDS011;48397;53.016;-2.260;2023-02-26T13:37:02;9.30;;;1.42;;
44670;SDS011;48397;53.016;-2.260;2023-02-26T13:42:12;2.90;;;1.35;;
44670;SDS011;48397;53.016;-2.260;2023-02-26T13:52:50;4.40;;;1.23;;
44670;SDS011;48397;53.016;-2.260;2023-02-26T13:56:04;5.55;;;1.23;;
44670;SDS011;48397;53.016;-2.260;2023-02-26T13:58:38;3.65;;;1.30;;
44670;SDS011;48397;53.016;-2.260;2023-02-26T14:01:19;4.35;;;1.10;;
44670;SDS011;48397;53.016;-2.260;2023-02-26T14:04:06;6.20;;;1.50;;
44670;SDS011;48397;53.016;-2.260;2023-02-26T14:06:41;6.57;;;1.48;;
44670;SDS011;48397;53.016;-2.260;2023-02-26T14:14:40;4.68;;;1.25;;
44670;SDS011;48397;53.016;-2.260;2023-02-26T14:22:22;8.50;;;1.60;;
44670;SDS011;48397;53.016;-2.260;2023-02-26T14:27:40;3.83;;;1.20;;
44670;SDS011;48397;53.016;-2.260;2023-02-26T14:35:27;2.25;;;0.80;;
44670;SDS011;48397;53.016;-2.260;2023-02-26T14:38:19;5.57;;;1.75;;
44670;SDS011;48397;53.016;-2.260;2023-02-26T14:40:54;4.03;;;1.30;;
44670;SDS011;48397;53.016;-2.260;2023-02-26T14:46:05;3.58;;;1.23;;
44670;SDS011;48397;53.016;-2.260;2023-02-26T14:48:36;2.38;;;0.85;;
44670;SDS011;48397;53.016;-2.260;2023-02-26T15:05:09;2.85;;;1.08;;
44670;SDS011;48397;53.016;-2.260;2023-02-26T15:07:53;3.92;;;1.30;;
44670;SDS011;48397;53.016;-2.260;2023-02-26T15:18:28;7.10;;;1.58;;
44670;SDS011;48397;53.016;-2.260;2023-02-26T15:23:57;8.70;;;1.58;;
44670;SDS011;48397;53.016;-2.260;2023-02-26T15:26:28;5.07;;;1.40;;
44670;SDS011;48397;53.016;-2.260;2023-02-26T15:29:01;6.53;;;1.50;;
44670;SDS011;48397;53.016;-2.260;2023-02-26T15:31:35;4.95;;;1.27;;
44670;SDS011;48397;53.016;-2.260;2023-02-26T15:34:12;4.05;;;1.20;;
44670;SDS011;48397;53.016;-2.260;2023-02-26T15:36:44;2.22;;;0.85;;
44670;SDS011;48397;53.016;-2.260;2023-02-26T15:39:17;2.42;;;1.92;;
44670;SDS011;48397;53.016;-2.260;2023-02-26T15:41:50;7.32;;;1.23;;
44670;SDS011;48397;53.016;-2.260;2023-02-26T15:44:24;3.05;;;1.25;;
44670;SDS011;48397;53.016;-2.260;2023-02-26T15:47:00;7.78;;;1.30;;
44670;SDS011;48397;53.016;-2.260;2023-02-26T15:49:39;4.15;;;1.27;;
44670;SDS011;48397;53.016;-2.260;2023-02-26T15:52:12;3.10;;;1.15;;
44670;SDS011;48397;53.016;-2.260;2023-02-26T15:54:48;3.88;;;1.58;;
44670;SDS011;48397;53.016;-2.260;2023-02-26T15:57:19;4.55;;;1.63;;
44670;SDS011;48397;53.016;-2.260;2023-02-26T15:59:51;1.65;;;0.77;;
44670;SDS011;48397;53.016;-2.260;2023-02-26T16:02:23;4.35;;;1.65;;
44670;SDS011;48397;53.016;-2.260;2023-02-26T16:04:54;4.88;;;1.25;;
44670;SDS011;48397;53.016;-2.260;2023-02-26T16:07:22;5.35;;;1.88;;
44670;SDS011;48397;53.016;-2.260;2023-02-26T16:09:52;4.05;;;1.50;;
44670;SDS011;48397;53.016;-2.260;2023-02-26T16:12:30;5.22;;;1.60;;
44670;SDS011;48397;53.016;-2.260;2023-02-26T16:15:06;4.53;;;2.17;;
44670;SDS011;48397;53.016;-2.260;2023-02-26T16:17:39;4.35;;;1.20;;
44670;SDS011;48397;53.016;-2.260;2023-02-26T16:20:17;6.55;;;1.55;;
44670;SDS011;48397;53.016;-2.260;2023-02-26T16:22:49;5.70;;;1.35;;
44670;SDS011;48397;53.016;-2.260;2023-02-26T16:25:29;7.07;;;1.25;;
44670;SDS011;48397;53.016;-2.260;2023-02-26T16:28:01;5.28;;;1.38;;
44670;SDS011;48397;53.016;-2.260;2023-02-26T16:30:35;5.55;;;1.50;;
44670;SDS011;48397;53.016;-2.260;2023-02-26T16:33:09;4.13;;;1.42;;
44670;SDS011;48397;53.016;-2.260;2023-02-26T16:35:52;7.38;;;2.22;;
44670;SDS011;48397;53.016;-2.260;2023-02-26T16:38:25;5.40;;;1.50;;
44670;SDS011;48397;53.016;-2.260;2023-02-26T16:40:57;2.92;;;0.95;;
44670;SDS011;48397;53.016;-2.260;2023-02-26T16:43:40;4.88;;;1.77;;
44670;SDS011;48397;53.016;-2.260;2023-02-26T16:46:16;2.40;;;1.05;;
44670;SDS011;48397;53.016;-2.260;2023-02-26T16:49:32;2.97;;;0.90;;
44670;SDS011;48397;53.016;-2.260;2023-02-26T16:52:03;5.70;;;1.73;;
44670;SDS011;48397;53.016;-2.260;2023-02-26T16:54:37;6.55;;;1.40;;
44670;SDS011;48397;53.016;-2.260;2023-02-26T16:57:17;4.38;;;1.15;;
44670;SDS011;48397;53.016;-2.260;2023-02-26T17:00:07;1.77;;;0.90;;
44670;SDS011;48397;53.016;-2.260;2023-02-26T17:05:19;3.67;;;1.27;;
44670;SDS011;48397;53.016;-2.260;2023-02-26T17:08:04;3.80;;;1.55;;
44670;SDS011;48397;53.016;-2.260;2023-02-26T17:10:46;8.93;;;1.67;;
44670;SDS011;48397;53.016;-2.260;2023-02-26T17:13:19;6.57;;;1.40;;
44670;SDS011;48397;53.016;-2.260;2023-02-26T17:15:58;5.35;;;1.33;;
44670;SDS011;48397;53.016;-2.260;2023-02-26T17:18:31;5.53;;;1.58;;
44670;SDS011;48397;53.016;-2.260;2023-02-26T17:20:59;5.68;;;1.45;;
44670;SDS011;48397;53.016;-2.260;2023-02-26T17:23:32;7.10;;;2.65;;
44670;SDS011;48397;53.016;-2.260;2023-02-26T17:26:04;3.72;;;1.35;;
44670;SDS011;48397;53.016;-2.260;2023-02-26T17:28:33;4.70;;;1.70;;
44670;SDS011;48397;53.016;-2.260;2023-02-26T17:31:07;4.05;;;1.40;;
44670;SDS011;48397;53.016;-2.260;2023-02-26T17:33:39;7.18;;;1.60;;
44670;SDS011;48397;53.016;-2.260;2023-02-26T17:36:09;9.82;;;2.58;;
44670;SDS011;48397;53.016;-2.260;2023-02-26T17:38:40;8.20;;;1.75;;
44670;SDS011;48397;53.016;-2.260;2023-02-26T17:41:14;8.50;;;2.25;;
44670;SDS011;48397;53.016;-2.260;2023-02-26T17:43:46;9.68;;;2.63;;
44670;SDS011;48397;53.016;-2.260;2023-02-26T17:46:18;8.35;;;2.63;;
44670;SDS011;48397;53.016;-2.260;2023-02-26T17:48:47;7.68;;;2.20;;
44670;SDS011;48397;53.016;-2.260;2023-02-26T17:51:15;9.77;;;2.85;;
44670;SDS011;48397;53.016;-2.260;2023-02-26T17:56:18;9.43;;;2.63;;
44670;SDS011;48397;53.016;-2.260;2023-02-26T17:58:56;8.93;;;2.50;;
44670;SDS011;48397;53.016;-2.260;2023-02-26T18:01:25;5.60;;;2.20;;
44670;SDS011;48397;53.016;-2.260;2023-02-26T18:03:55;8.60;;;2.95;;
44670;SDS011;48397;53.016;-2.260;2023-02-26T18:06:31;6.28;;;2.70;;
44670;SDS011;48397;53.016;-2.260;2023-02-26T18:09:02;11.40;;;2.90;;
44670;SDS011;48397;53.016;-2.260;2023-02-26T18:11:33;10.13;;;2.75;;
44670;SDS011;48397;53.016;-2.260;2023-02-26T18:14:01;8.18;;;3.10;;
44670;SDS011;48397;53.016;-2.260;2023-02-26T18:16:41;9.52;;;2.85;;
44670;SDS011;48397;53.016;-2.260;2023-02-26T18:19:12;6.40;;;2.60;;
44670;SDS011;48397;53.016;-2.260;2023-02-26T18:21:41;8.38;;;3.25;;
44670;SDS011;48397;53.016;-2.260;2023-02-26T18:24:11;8.90;;;3.28;;
44670;SDS011;48397;53.016;-2.260;2023-02-26T18:29:08;13.57;;;4.30;;
44670;SDS011;48397;53.016;-2.260;2023-02-26T18:31:38;8.65;;;4.28;;
44670;SDS011;48397;53.016;-2.260;2023-02-26T18:34:07;13.27;;;4.90;;
44670;SDS011;48397;53.016;-2.260;2023-02-26T18:36:35;13.52;;;4.47;;
44670;SDS011;48397;53.016;-2.260;2023-02-26T18:39:07;12.15;;;5.30;;
44670;SDS011;48397;53.016;-2.260;2023-02-26T18:41:38;12.63;;;5.30;;
44670;SDS011;48397;53.016;-2.260;2023-02-26T18:44:06;16.58;;;6.13;;
44670;SDS011;48397;53.016;-2.260;2023-02-26T18:46:35;12.18;;;5.32;;
44670;SDS011;48397;53.016;-2.260;2023-02-26T18:49:07;10.88;;;5.28;;
44670;SDS011;48397;53.016;-2.260;2023-02-26T18:51:44;13.55;;;5.18;;
44670;SDS011;48397;53.016;-2.260;2023-02-26T18:54:14;12.52;;;5.22;;
44670;SDS011;48397;53.016;-2.260;2023-02-26T18:56:43;10.25;;;5.00;;
44670;SDS011;48397;53.016;-2.260;2023-02-26T18:59:13;17.33;;;5.85;;
44670;SDS011;48397;53.016;-2.260;2023-02-26T19:01:41;12.68;;;6.10;;
44670;SDS011;48397;53.016;-2.260;2023-02-26T19:04:10;15.15;;;5.63;;
44670;SDS011;48397;53.016;-2.260;2023-02-26T19:06:41;12.15;;;5.50;;
44670;SDS011;48397;53.016;-2.260;2023-02-26T19:09:14;11.32;;;5.22;;
44670;SDS011;48397;53.016;-2.260;2023-02-26T19:11:42;11.73;;;4.82;;